sensor_id;sensor_type;location;lat;lon;timestamp;pressure;altitude;pressure_sealevel;temperature;humidity
55347;BME280;41218;55.700;38.270;2023-11-22T00:03:07;99739.41;;;-8.73;67.59
55347;BME280;41218;55.700;38.270;2023-11-22T00:08:07;99743.16;;;-8.57;67.84
55347;BME280;41218;55.700;38.270;2023-11-22T00:13:08;99742.91;;;-8.72;68.30
55347;BME280;41218;55.700;38.270;2023-11-22T00:18:08;99743.75;;;-8.72;67.68
55347;BME280;41218;55.700;38.270;2023-11-22T00:23:09;99748.13;;;-8.65;68.17
55347;BME280;41218;55.700;38.270;2023-11-22T00:28:10;99746.16;;;-8.70;68.28
55347;BME280;41218;55.700;38.270;2023-11-22T00:33:11;99732.34;;;-8.79;68.12
55347;BME280;41218;55.700;38.270;2023-11-22T00:38:12;99745.84;;;-8.74;68.31
55347;BME280;41218;55.700;38.270;2023-11-22T00:43:14;99735.13;;;-8.74;68.40
55347;BME280;41218;55.700;38.270;2023-11-22T00:48:14;99737.94;;;-8.80;68.22
55347;BME280;41218;55.700;38.270;2023-11-22T00:53:14;99745.91;;;-8.69;68.79
55347;BME280;41218;55.700;38.270;2023-11-22T00:58:15;99743.41;;;-8.75;68.50
55347;BME280;41218;55.700;38.270;2023-11-22T01:03:15;99745.13;;;-8.69;68.22
55347;BME280;41218;55.700;38.270;2023-11-22T01:08:16;99734.22;;;-8.79;68.41
55347;BME280;41218;55.700;38.270;2023-11-22T01:13:17;99741.44;;;-8.80;68.61
55347;BME280;41218;55.700;38.270;2023-11-22T01:18:19;99744.44;;;-8.76;68.56
55347;BME280;41218;55.700;38.270;2023-11-22T01:23:19;99746.09;;;-8.75;68.79
55347;BME280;41218;55.700;38.270;2023-11-22T01:28:21;99742.50;;;-8.81;68.49
55347;BME280;41218;55.700;38.270;2023-11-22T01:33:22;99727.16;;;-8.85;68.23
55347;BME280;41218;55.700;38.270;2023-11-22T01:38:22;99743.06;;;-8.79;68.58
55347;BME280;41218;55.700;38.270;2023-11-22T01:43:28;99742.50;;;-8.81;68.25
55347;BME280;41218;55.700;38.270;2023-11-22T01:48:28;99737.22;;;-8.76;68.52
55347;BME280;41218;55.700;38.270;2023-11-22T01:53:33;99736.19;;;-8.75;68.17
55347;BME280;41218;55.700;38.270;2023-11-22T01:58:33;99736.97;;;-8.74;68.38
55347;BME280;41218;55.700;38.270;2023-11-22T02:03:35;99743.75;;;-8.72;68.75
55347;BME280;41218;55.700;38.270;2023-11-22T02:08:35;99750.31;;;-8.62;68.45
55347;BME280;41218;55.700;38.270;2023-11-22T02:13:35;99749.97;;;-8.66;68.13
55347;BME280;41218;55.700;38.270;2023-11-22T02:18:36;99740.56;;;-8.69;68.23
55347;BME280;41218;55.700;38.270;2023-11-22T02:23:37;99710.25;;;-8.86;68.20
55347;BME280;41218;55.700;38.270;2023-11-22T02:28:38;99738.53;;;-8.61;68.70
55347;BME280;41218;55.700;38.270;2023-11-22T02:33:38;99748.84;;;-8.53;68.83
55347;BME280;41218;55.700;38.270;2023-11-22T02:38:40;99754.03;;;-8.47;68.53
55347;BME280;41218;55.700;38.270;2023-11-22T02:43:41;99744.88;;;-8.51;68.83
55347;BME280;41218;55.700;38.270;2023-11-22T02:48:41;99752.97;;;-8.46;68.93
55347;BME280;41218;55.700;38.270;2023-11-22T02:53:42;99757.09;;;-8.38;68.20
55347;BME280;41218;55.700;38.270;2023-11-22T02:58:44;99754.94;;;-8.41;68.83
55347;BME280;41218;55.700;38.270;2023-11-22T03:03:44;99754.16;;;-8.36;68.73
55347;BME280;41218;55.700;38.270;2023-11-22T03:08:45;99730.16;;;-8.48;68.74
55347;BME280;41218;55.700;38.270;2023-11-22T03:13:46;99750.97;;;-8.33;68.71
55347;BME280;41218;55.700;38.270;2023-11-22T03:18:48;99749.13;;;-8.33;68.23
55347;BME280;41218;55.700;38.270;2023-11-22T03:23:51;99749.94;;;-8.32;68.32
55347;BME280;41218;55.700;38.270;2023-11-22T03:28:51;99756.53;;;-8.23;68.34
55347;BME280;41218;55.700;38.270;2023-11-22T03:33:53;99754.81;;;-8.29;68.50
55347;BME280;41218;55.700;38.270;2023-11-22T03:38:54;99759.13;;;-8.28;68.36
55347;BME280;41218;55.700;38.270;2023-11-22T03:43:55;99751.81;;;-8.33;68.89
55347;BME280;41218;55.700;38.270;2023-11-22T03:48:56;99757.75;;;-8.31;68.92
55347;BME280;41218;55.700;38.270;2023-11-22T03:53:56;99753.75;;;-8.28;68.55
55347;BME280;41218;55.700;38.270;2023-11-22T03:58:57;99743.44;;;-8.36;68.29
55347;BME280;41218;55.700;38.270;2023-11-22T04:03:57;99764.56;;;-8.23;68.73
55347;BME280;41218;55.700;38.270;2023-11-22T04:08:58;99762.78;;;-8.34;68.58
55347;BME280;41218;55.700;38.270;2023-11-22T04:13:59;99786.44;;;-8.31;68.25
55347;BME280;41218;55.700;38.270;2023-11-22T04:18:59;99782.59;;;-8.35;68.72
55347;BME280;41218;55.700;38.270;2023-11-22T04:24:01;99764.19;;;-8.49;68.79
55347;BME280;41218;55.700;38.270;2023-11-22T04:29:02;99791.28;;;-8.28;68.38
55347;BME280;41218;55.700;38.270;2023-11-22T04:34:04;99793.97;;;-8.28;68.18
55347;BME280;41218;55.700;38.270;2023-11-22T04:39:04;99801.63;;;-8.37;68.28
55347;BME280;41218;55.700;38.270;2023-11-22T04:44:07;99776.47;;;-8.53;67.90
55347;BME280;41218;55.700;38.270;2023-11-22T04:49:07;99796.44;;;-8.43;68.15
55347;BME280;41218;55.700;38.270;2023-11-22T04:54:08;99791.75;;;-8.53;67.82
55347;BME280;41218;55.700;38.270;2023-11-22T04:59:09;99790.91;;;-8.54;67.92
55347;BME280;41218;55.700;38.270;2023-11-22T05:04:09;99808.13;;;-8.50;68.05
55347;BME280;41218;55.700;38.270;2023-11-22T05:09:10;99802.84;;;-8.61;67.62
55347;BME280;41218;55.700;38.270;2023-11-22T05:14:13;99815.19;;;-8.60;67.75
55347;BME280;41218;55.700;38.270;2023-11-22T05:19:16;99806.41;;;-8.56;67.77
55347;BME280;41218;55.700;38.270;2023-11-22T05:24:17;99799.16;;;-8.72;66.99
55347;BME280;41218;55.700;38.270;2023-11-22T05:29:17;99815.50;;;-8.74;67.25
55347;BME280;41218;55.700;38.270;2023-11-22T05:34:18;99789.00;;;-8.87;67.31
55347;BME280;41218;55.700;38.270;2023-11-22T05:39:19;99807.53;;;-8.85;67.38
55347;BME280;41218;55.700;38.270;2023-11-22T05:44:19;99826.69;;;-8.77;67.55
55347;BME280;41218;55.700;38.270;2023-11-22T05:49:20;99818.47;;;-8.87;67.28
55347;BME280;41218;55.700;38.270;2023-11-22T05:54:27;99829.38;;;-8.77;67.46
55347;BME280;41218;55.700;38.270;2023-11-22T05:59:27;99818.81;;;-8.83;67.32
55347;BME280;41218;55.700;38.270;2023-11-22T06:04:28;99831.66;;;-8.69;67.13
55347;BME280;41218;55.700;38.270;2023-11-22T06:09:29;99831.13;;;-8.82;67.06
55347;BME280;41218;55.700;38.270;2023-11-22T06:14:30;99806.97;;;-8.88;67.61
55347;BME280;41218;55.700;38.270;2023-11-22T06:19:30;99831.81;;;-8.75;67.23
55347;BME280;41218;55.700;38.270;2023-11-22T06:24:31;99835.31;;;-8.75;67.58
55347;BME280;41218;55.700;38.270;2023-11-22T06:29:33;99816.88;;;-8.71;67.50
55347;BME280;41218;55.700;38.270;2023-11-22T06:34:33;99823.84;;;-8.70;67.23
55347;BME280;41218;55.700;38.270;2023-11-22T06:39:37;99829.22;;;-8.70;67.29
55347;BME280;41218;55.700;38.270;2023-11-22T06:44:38;99819.06;;;-8.68;66.96
55347;BME280;41218;55.700;38.270;2023-11-22T06:49:40;99828.25;;;-8.64;67.16
55347;BME280;41218;55.700;38.270;2023-11-22T06:54:40;99839.53;;;-8.62;67.08
55347;BME280;41218;55.700;38.270;2023-11-22T06:59:42;99829.88;;;-8.63;67.28
55347;BME280;41218;55.700;38.270;2023-11-22T07:04:43;99832.41;;;-8.56;67.23
55347;BME280;41218;55.700;38.270;2023-11-22T07:09:44;99837.38;;;-8.48;67.11
55347;BME280;41218;55.700;38.270;2023-11-22T07:14:44;99818.63;;;-8.48;67.58
55347;BME280;41218;55.700;38.270;2023-11-22T07:19:45;99838.41;;;-8.32;67.53
55347;BME280;41218;55.700;38.270;2023-11-22T07:24:49;99834.09;;;-8.33;66.97
55347;BME280;41218;55.700;38.270;2023-11-22T07:29:54;99828.50;;;-8.32;67.26
55347;BME280;41218;55.700;38.270;2023-11-22T07:34:55;99845.66;;;-8.16;67.23
55347;BME280;41218;55.700;38.270;2023-11-22T07:39:56;99837.69;;;-8.11;66.67
55347;BME280;41218;55.700;38.270;2023-11-22T07:44:57;99832.81;;;-8.14;66.96
55347;BME280;41218;55.700;38.270;2023-11-22T07:49:58;99836.22;;;-8.01;66.90
55347;BME280;41218;55.700;38.270;2023-11-22T07:54:59;99848.59;;;-8.00;67.33
55347;BME280;41218;55.700;38.270;2023-11-22T07:59:59;99846.06;;;-7.90;67.38
55347;BME280;41218;55.700;38.270;2023-11-22T08:05:07;99834.75;;;-7.92;66.92
55347;BME280;41218;55.700;38.270;2023-11-22T08:10:40;99799.56;;;-8.13;66.83
55347;BME280;41218;55.700;38.270;2023-11-22T08:15:49;99833.53;;;-7.84;66.68
55347;BME280;41218;55.700;38.270;2023-11-22T08:20:50;99846.09;;;-7.68;66.83
55347;BME280;41218;55.700;38.270;2023-11-22T08:25:50;99830.09;;;-7.80;66.25
55347;BME280;41218;55.700;38.270;2023-11-22T08:30:51;99835.38;;;-7.68;66.29
55347;BME280;41218;55.700;38.270;2023-11-22T08:35:53;99853.63;;;-7.65;66.45
55347;BME280;41218;55.700;38.270;2023-11-22T08:41:01;99841.97;;;-7.76;66.19
55347;BME280;41218;55.700;38.270;2023-11-22T08:46:03;99838.16;;;-7.80;66.39
55347;BME280;41218;55.700;38.270;2023-11-22T08:51:09;99837.91;;;-7.78;66.50
55347;BME280;41218;55.700;38.270;2023-11-22T08:56:10;99845.59;;;-7.65;66.25
55347;BME280;41218;55.700;38.270;2023-11-22T09:01:11;99839.41;;;-7.66;65.69
55347;BME280;41218;55.700;38.270;2023-11-22T09:06:15;99837.06;;;-7.62;65.91
55347;BME280;41218;55.700;38.270;2023-11-22T09:11:16;99823.88;;;-7.63;65.60
55347;BME280;41218;55.700;38.270;2023-11-22T09:16:20;99822.88;;;-7.57;65.89
55347;BME280;41218;55.700;38.270;2023-11-22T09:21:22;99824.25;;;-7.55;64.95
55347;BME280;41218;55.700;38.270;2023-11-22T09:26:22;99833.09;;;-7.54;65.16
55347;BME280;41218;55.700;38.270;2023-11-22T09:31:23;99837.06;;;-7.62;65.77
55347;BME280;41218;55.700;38.270;2023-11-22T09:36:24;99813.56;;;-7.72;65.52
55347;BME280;41218;55.700;38.270;2023-11-22T09:41:28;99828.25;;;-7.57;65.54
55347;BME280;41218;55.700;38.270;2023-11-22T09:46:29;99834.81;;;-7.48;65.72
55347;BME280;41218;55.700;38.270;2023-11-22T09:51:32;99838.81;;;-7.51;65.75
55347;BME280;41218;55.700;38.270;2023-11-22T09:56:34;99839.78;;;-7.40;64.91
55347;BME280;41218;55.700;38.270;2023-11-22T10:01:37;99839.94;;;-7.47;65.28
55347;BME280;41218;55.700;38.270;2023-11-22T10:06:38;99839.34;;;-7.32;65.08
55347;BME280;41218;55.700;38.270;2023-11-22T10:11:41;99834.97;;;-7.38;65.52
55347;BME280;41218;55.700;38.270;2023-11-22T10:16:57;99827.06;;;-7.45;65.58
55347;BME280;41218;55.700;38.270;2023-11-22T10:22:08;99828.50;;;-7.37;65.62
55347;BME280;41218;55.700;38.270;2023-11-22T10:27:10;99822.34;;;-7.37;65.58
55347;BME280;41218;55.700;38.270;2023-11-22T10:32:11;99817.72;;;-7.42;65.40
55347;BME280;41218;55.700;38.270;2023-11-22T10:37:13;99829.06;;;-7.35;65.58
55347;BME280;41218;55.700;38.270;2023-11-22T10:42:16;99805.81;;;-7.46;65.27
55347;BME280;41218;55.700;38.270;2023-11-22T10:47:18;99817.44;;;-7.40;65.38
55347;BME280;41218;55.700;38.270;2023-11-22T10:52:19;99810.97;;;-7.45;64.86
55347;BME280;41218;55.700;38.270;2023-11-22T10:57:25;99829.44;;;-7.26;65.26
55347;BME280;41218;55.700;38.270;2023-11-22T11:02:28;99812.19;;;-7.30;65.04
55347;BME280;41218;55.700;38.270;2023-11-22T11:07:33;99825.06;;;-7.32;64.99
55347;BME280;41218;55.700;38.270;2023-11-22T11:12:37;99830.19;;;-7.31;65.29
55347;BME280;41218;55.700;38.270;2023-11-22T11:17:38;99818.53;;;-7.41;65.31
55347;BME280;41218;55.700;38.270;2023-11-22T11:22:40;99816.16;;;-7.38;65.18
55347;BME280;41218;55.700;38.270;2023-11-22T11:27:41;99802.22;;;-7.35;65.17
55347;BME280;41218;55.700;38.270;2023-11-22T11:32:41;99821.81;;;-7.12;65.71
55347;BME280;41218;55.700;38.270;2023-11-22T11:37:59;99793.16;;;-7.29;65.04
55347;BME280;41218;55.700;38.270;2023-11-22T11:43:00;99790.47;;;-7.29;64.84
55347;BME280;41218;55.700;38.270;2023-11-22T11:48:01;99775.94;;;-7.33;65.02
55347;BME280;41218;55.700;38.270;2023-11-22T11:53:01;99803.47;;;-7.20;65.31
55347;BME280;41218;55.700;38.270;2023-11-22T11:58:04;99784.19;;;-7.39;65.23
55347;BME280;41218;55.700;38.270;2023-11-22T12:03:06;99757.34;;;-7.61;65.12
55347;BME280;41218;55.700;38.270;2023-11-22T12:08:07;99806.66;;;-7.23;64.79
55347;BME280;41218;55.700;38.270;2023-11-22T12:13:12;99839.00;;;-7.35;64.55
55347;BME280;41218;55.700;38.270;2023-11-22T12:18:12;99801.59;;;-7.64;65.32
55347;BME280;41218;55.700;38.270;2023-11-22T12:23:15;99839.78;;;-7.40;64.95
55347;BME280;41218;55.700;38.270;2023-11-22T12:28:22;99790.66;;;-7.79;64.71
55347;BME280;41218;55.700;38.270;2023-11-22T12:33:23;99839.56;;;-7.55;65.06
55347;BME280;41218;55.700;38.270;2023-11-22T12:38:27;99836.53;;;-7.59;65.07
55347;BME280;41218;55.700;38.270;2023-11-22T12:43:29;99840.34;;;-7.55;64.70
55347;BME280;41218;55.700;38.270;2023-11-22T12:48:31;99856.09;;;-7.63;64.80
55347;BME280;41218;55.700;38.270;2023-11-22T12:53:33;99842.28;;;-7.72;65.33
55347;BME280;41218;55.700;38.270;2023-11-22T12:58:36;99840.16;;;-7.70;65.20
55347;BME280;41218;55.700;38.270;2023-11-22T13:03:37;99852.09;;;-7.61;65.60
55347;BME280;41218;55.700;38.270;2023-11-22T13:08:38;99845.44;;;-7.75;65.50
55347;BME280;41218;55.700;38.270;2023-11-22T13:13:38;99850.72;;;-7.63;65.39
55347;BME280;41218;55.700;38.270;2023-11-22T13:18:42;99863.56;;;-7.66;64.88
55347;BME280;41218;55.700;38.270;2023-11-22T13:23:43;99863.66;;;-7.77;65.22
55347;BME280;41218;55.700;38.270;2023-11-22T13:28:43;99869.28;;;-7.79;65.40
55347;BME280;41218;55.700;38.270;2023-11-22T13:33:45;99853.59;;;-7.87;65.15
55347;BME280;41218;55.700;38.270;2023-11-22T13:38:47;99873.22;;;-7.87;64.95
55347;BME280;41218;55.700;38.270;2023-11-22T13:43:47;99871.09;;;-7.84;65.04
55347;BME280;41218;55.700;38.270;2023-11-22T13:48:49;99843.34;;;-8.07;65.01
55347;BME280;41218;55.700;38.270;2023-11-22T13:53:49;99882.31;;;-7.88;64.98
55347;BME280;41218;55.700;38.270;2023-11-22T13:58:56;99876.28;;;-7.95;64.48
55347;BME280;41218;55.700;38.270;2023-11-22T14:04:00;99840.63;;;-8.29;64.69
55347;BME280;41218;55.700;38.270;2023-11-22T14:09:02;99858.72;;;-8.19;64.85
55347;BME280;41218;55.700;38.270;2023-11-22T14:14:03;99884.84;;;-8.15;64.78
55347;BME280;41218;55.700;38.270;2023-11-22T14:19:13;99854.84;;;-8.46;64.90
55347;BME280;41218;55.700;38.270;2023-11-22T14:24:14;99871.63;;;-8.33;64.34
55347;BME280;41218;55.700;38.270;2023-11-22T14:29:14;99874.66;;;-8.47;64.52
55347;BME280;41218;55.700;38.270;2023-11-22T14:34:15;99889.09;;;-8.64;64.42
55347;BME280;41218;55.700;38.270;2023-11-22T14:39:15;99883.38;;;-8.68;64.90
55347;BME280;41218;55.700;38.270;2023-11-22T14:44:23;99867.13;;;-8.78;64.63
55347;BME280;41218;55.700;38.270;2023-11-22T14:49:25;99890.53;;;-8.74;64.37
55347;BME280;41218;55.700;38.270;2023-11-22T14:54:26;99895.41;;;-8.71;64.84
55347;BME280;41218;55.700;38.270;2023-11-22T14:59:27;99896.22;;;-8.70;64.82
55347;BME280;41218;55.700;38.270;2023-11-22T15:04:30;99895.75;;;-8.67;64.64
55347;BME280;41218;55.700;38.270;2023-11-22T15:09:34;99879.03;;;-8.86;64.29
55347;BME280;41218;55.700;38.270;2023-11-22T15:14:35;99886.38;;;-8.81;63.84
55347;BME280;41218;55.700;38.270;2023-11-22T15:19:35;99902.66;;;-8.83;63.79
55347;BME280;41218;55.700;38.270;2023-11-22T15:24:38;99895.38;;;-8.99;63.81
55347;BME280;41218;55.700;38.270;2023-11-22T15:29:38;99909.44;;;-8.92;63.24
55347;BME280;41218;55.700;38.270;2023-11-22T15:34:40;99892.84;;;-9.06;63.95
55347;BME280;41218;55.700;38.270;2023-11-22T15:39:43;99908.91;;;-9.06;64.07
55347;BME280;41218;55.700;38.270;2023-11-22T15:44:44;99908.22;;;-9.13;63.83
55347;BME280;41218;55.700;38.270;2023-11-22T15:49:47;99899.25;;;-9.19;63.88
55347;BME280;41218;55.700;38.270;2023-11-22T15:54:51;99890.06;;;-9.11;64.29
55347;BME280;41218;55.700;38.270;2023-11-22T15:59:51;99889.41;;;-9.18;64.71
55347;BME280;41218;55.700;38.270;2023-11-22T16:04:52;99893.69;;;-9.17;64.21
55347;BME280;41218;55.700;38.270;2023-11-22T16:09:52;99892.88;;;-9.18;64.23
55347;BME280;41218;55.700;38.270;2023-11-22T16:14:55;99881.47;;;-9.25;64.48
55347;BME280;41218;55.700;38.270;2023-11-22T16:19:56;99910.44;;;-9.10;65.00
55347;BME280;41218;55.700;38.270;2023-11-22T16:25:01;99882.75;;;-9.16;64.63
55347;BME280;41218;55.700;38.270;2023-11-22T16:30:02;99885.88;;;-9.19;64.34
55347;BME280;41218;55.700;38.270;2023-11-22T16:35:04;99878.94;;;-9.32;64.34
55347;BME280;41218;55.700;38.270;2023-11-22T16:40:11;99886.03;;;-9.25;64.60
55347;BME280;41218;55.700;38.270;2023-11-22T16:45:12;99886.34;;;-9.10;64.61
55347;BME280;41218;55.700;38.270;2023-11-22T16:50:13;99893.91;;;-9.19;65.09
55347;BME280;41218;55.700;38.270;2023-11-22T16:55:14;99875.88;;;-9.23;64.41
55347;BME280;41218;55.700;38.270;2023-11-22T17:00:15;99870.19;;;-9.27;64.40
55347;BME280;41218;55.700;38.270;2023-11-22T17:05:26;99895.19;;;-9.10;64.86
55347;BME280;41218;55.700;38.270;2023-11-22T17:10:26;99872.03;;;-9.16;65.05
55347;BME280;41218;55.700;38.270;2023-11-22T17:15:27;99859.22;;;-9.14;64.44
55347;BME280;41218;55.700;38.270;2023-11-22T17:20:28;99868.84;;;-9.01;65.11
55347;BME280;41218;55.700;38.270;2023-11-22T17:25:28;99859.06;;;-9.07;64.72
55347;BME280;41218;55.700;38.270;2023-11-22T17:30:29;99871.06;;;-8.98;65.07
55347;BME280;41218;55.700;38.270;2023-11-22T17:35:39;99857.66;;;-8.98;65.30
55347;BME280;41218;55.700;38.270;2023-11-22T17:40:39;99853.69;;;-8.95;64.99
55347;BME280;41218;55.700;38.270;2023-11-22T17:45:40;99855.41;;;-8.89;64.69
55347;BME280;41218;55.700;38.270;2023-11-22T17:50:41;99841.59;;;-8.98;65.05
55347;BME280;41218;55.700;38.270;2023-11-22T17:55:41;99854.09;;;-8.87;64.99
55347;BME280;41218;55.700;38.270;2023-11-22T18:00:43;99842.25;;;-8.91;65.14
55347;BME280;41218;55.700;38.270;2023-11-22T18:05:49;99852.56;;;-8.82;65.03
55347;BME280;41218;55.700;38.270;2023-11-22T18:10:49;99833.00;;;-8.83;65.19
55347;BME280;41218;55.700;38.270;2023-11-22T18:15:50;99832.84;;;-8.76;65.55
55347;BME280;41218;55.700;38.270;2023-11-22T18:20:53;99834.50;;;-8.75;65.42
55347;BME280;41218;55.700;38.270;2023-11-22T18:25:54;99824.25;;;-8.78;65.45
55347;BME280;41218;55.700;38.270;2023-11-22T18:30:55;99828.97;;;-8.69;65.81
55347;BME280;41218;55.700;38.270;2023-11-22T18:35:55;99825.50;;;-8.69;65.80
55347;BME280;41218;55.700;38.270;2023-11-22T18:40:57;99812.00;;;-8.74;65.38
55347;BME280;41218;55.700;38.270;2023-11-22T18:46:03;99824.19;;;-8.67;65.35
55347;BME280;41218;55.700;38.270;2023-11-22T18:51:04;99821.69;;;-8.56;65.63
55347;BME280;41218;55.700;38.270;2023-11-22T18:56:04;99815.03;;;-8.54;65.44
55347;BME280;41218;55.700;38.270;2023-11-22T19:01:05;99821.28;;;-8.48;65.51
55347;BME280;41218;55.700;38.270;2023-11-22T19:06:08;99807.72;;;-8.58;65.27
55347;BME280;41218;55.700;38.270;2023-11-22T19:11:09;99824.31;;;-8.44;65.31
55347;BME280;41218;55.700;38.270;2023-11-22T19:16:11;99801.31;;;-8.57;65.97
55347;BME280;41218;55.700;38.270;2023-11-22T19:21:16;99810.34;;;-8.47;65.77
55347;BME280;41218;55.700;38.270;2023-11-22T19:26:21;99812.09;;;-8.52;65.54
55347;BME280;41218;55.700;38.270;2023-11-22T19:31:22;99804.16;;;-8.47;65.61
55347;BME280;41218;55.700;38.270;2023-11-22T19:36:24;99806.09;;;-8.42;65.93
55347;BME280;41218;55.700;38.270;2023-11-22T19:41:24;99791.47;;;-8.52;66.12
55347;BME280;41218;55.700;38.270;2023-11-22T19:46:25;99806.16;;;-8.37;66.12
55347;BME280;41218;55.700;38.270;2023-11-22T19:51:25;99794.25;;;-8.47;65.89
55347;BME280;41218;55.700;38.270;2023-11-22T19:56:26;99801.34;;;-8.35;65.95
55347;BME280;41218;55.700;38.270;2023-11-22T20:01:27;99798.59;;;-8.40;66.11
55347;BME280;41218;55.700;38.270;2023-11-22T20:06:28;99795.75;;;-8.34;65.89
55347;BME280;41218;55.700;38.270;2023-11-22T20:11:30;99774.25;;;-8.39;65.71
55347;BME280;41218;55.700;38.270;2023-11-22T20:16:31;99782.78;;;-8.25;65.94
55347;BME280;41218;55.700;38.270;2023-11-22T20:21:31;99769.03;;;-8.29;66.04
55347;BME280;41218;55.700;38.270;2023-11-22T20:26:32;99778.94;;;-8.12;65.78
55347;BME280;41218;55.700;38.270;2023-11-22T20:31:33;99772.34;;;-8.21;66.16
55347;BME280;41218;55.700;38.270;2023-11-22T20:36:34;99781.03;;;-8.14;65.36
55347;BME280;41218;55.700;38.270;2023-11-22T20:41:37;99769.75;;;-8.16;65.80
55347;BME280;41218;55.700;38.270;2023-11-22T20:46:40;99765.84;;;-8.09;65.07
55347;BME280;41218;55.700;38.270;2023-11-22T20:51:41;99764.16;;;-8.15;64.80
55347;BME280;41218;55.700;38.270;2023-11-22T20:56:43;99757.94;;;-8.15;64.30
55347;BME280;41218;55.700;38.270;2023-11-22T21:01:43;99753.47;;;-8.10;64.77
55347;BME280;41218;55.700;38.270;2023-11-22T21:06:44;99745.50;;;-8.04;64.24
55347;BME280;41218;55.700;38.270;2023-11-22T21:11:45;99726.91;;;-8.11;64.40
55347;BME280;41218;55.700;38.270;2023-11-22T21:16:45;99725.19;;;-8.00;64.17
55347;BME280;41218;55.700;38.270;2023-11-22T21:21:46;99703.59;;;-8.11;64.03
55347;BME280;41218;55.700;38.270;2023-11-22T21:26:47;99694.91;;;-8.18;64.38
55347;BME280;41218;55.700;38.270;2023-11-22T21:31:50;99705.56;;;-8.01;64.23
55347;BME280;41218;55.700;38.270;2023-11-22T21:36:51;99695.91;;;-8.02;64.53
55347;BME280;41218;55.700;38.270;2023-11-22T21:41:53;99694.59;;;-7.99;65.08
55347;BME280;41218;55.700;38.270;2023-11-22T21:46:54;99687.69;;;-7.95;64.49
55347;BME280;41218;55.700;38.270;2023-11-22T21:51:55;99700.03;;;-7.94;64.19
55347;BME280;41218;55.700;38.270;2023-11-22T21:56:56;99700.41;;;-7.86;63.68
55347;BME280;41218;55.700;38.270;2023-11-22T22:01:56;99701.59;;;-7.98;63.81
55347;BME280;41218;55.700;38.270;2023-11-22T22:06:57;99702.16;;;-7.96;63.35
55347;BME280;41218;55.700;38.270;2023-11-22T22:11:58;99701.75;;;-8.05;61.96
55347;BME280;41218;55.700;38.270;2023-11-22T22:16:58;99704.78;;;-8.01;61.90
55347;BME280;41218;55.700;38.270;2023-11-22T22:21:59;99687.59;;;-8.22;62.68
55347;BME280;41218;55.700;38.270;2023-11-22T22:27:00;99696.03;;;-8.14;62.18
55347;BME280;41218;55.700;38.270;2023-11-22T22:32:01;99694.97;;;-8.13;62.11
55347;BME280;41218;55.700;38.270;2023-11-22T22:37:01;99687.78;;;-8.07;62.15
55347;BME280;41218;55.700;38.270;2023-11-22T22:42:03;99676.88;;;-8.22;62.34
55347;BME280;41218;55.700;38.270;2023-11-22T22:47:03;99690.91;;;-8.15;62.42
55347;BME280;41218;55.700;38.270;2023-11-22T22:52:04;99665.03;;;-8.27;62.45
55347;BME280;41218;55.700;38.270;2023-11-22T22:57:05;99672.44;;;-8.12;62.66
55347;BME280;41218;55.700;38.270;2023-11-22T23:02:06;99652.56;;;-8.16;62.50
55347;BME280;41218;55.700;38.270;2023-11-22T23:07:06;99654.88;;;-8.02;62.64
55347;BME280;41218;55.700;38.270;2023-11-22T23:12:13;99634.41;;;-8.09;62.68
55347;BME280;41218;55.700;38.270;2023-11-22T23:17:13;99634.47;;;-8.03;62.79
55347;BME280;41218;55.700;38.270;2023-11-22T23:22:14;99635.47;;;-7.88;62.59
55347;BME280;41218;55.700;38.270;2023-11-22T23:27:14;99627.09;;;-7.91;63.23
55347;BME280;41218;55.700;38.270;2023-11-22T23:32:15;99628.84;;;-7.80;62.92
55347;BME280;41218;55.700;38.270;2023-11-22T23:37:15;99617.25;;;-7.86;62.63
55347;BME280;41218;55.700;38.270;2023-11-22T23:42:17;99616.44;;;-7.86;62.80
55347;BME280;41218;55.700;38.270;2023-11-22T23:47:18;99602.22;;;-7.87;62.65
55347;BME280;41218;55.700;38.270;2023-11-22T23:52:18;99633.44;;;-7.75;63.08
55347;BME280;41218;55.700;38.270;2023-11-22T23:57:20;99611.41;;;-7.77;62.96
